Time;durP1;ratioP1;P1;durP2;ratioP2;P2;SDS_P1;SDS_P2;PMS_P1;PMS_P2;Temp;Humidity;BMP_temperature;BMP_pressure;BME280_temperature;BME280_humidity;BME280_pressure;Samples;Min_cycle;Max_cycle;Signal;HPM_P1;HPM_P2
2021/09/19 00:01:20;;;;;;;4.17;2.53;;;14.60;99.90;;;;;;5073498;28;20669;-70
2021/09/19 00:03:46;;;;;;;2.77;1.97;;;14.60;99.90;;;;;;5073531;28;20216;-70
2021/09/19 00:06:12;;;;;;;2.20;2.00;;;14.70;99.90;;;;;;5073823;28;20409;-70
2021/09/19 00:08:37;;;;;;;3.20;2.07;;;14.70;99.90;;;;;;5073146;28;20432;-70
2021/09/19 00:11:03;;;;;;;1.77;1.63;;;14.70;99.90;;;;;;5069530;28;20238;-70
2021/09/19 00:13:29;;;;;;;3.10;2.13;;;14.70;99.90;;;;;;5053493;28;20237;-70
2021/09/19 00:15:54;;;;;;;2.70;2.20;;;14.70;99.90;;;;;;5053165;28;20730;-70
2021/09/19 00:18:20;;;;;;;2.33;1.70;;;14.70;99.90;;;;;;5053383;28;20188;-70
2021/09/19 00:20:46;;;;;;;2.70;2.17;;;14.70;99.90;;;;;;5072105;28;20276;-70
2021/09/19 00:23:12;;;;;;;2.80;2.50;;;14.70;99.90;;;;;;5073346;28;20519;-70
2021/09/19 00:25:38;;;;;;;3.10;2.30;;;14.70;99.90;;;;;;5072942;28;20432;-70
2021/09/19 00:28:05;;;;;;;2.33;2.13;;;14.70;99.90;;;;;;5072270;28;20922;-70
2021/09/19 00:30:30;;;;;;;2.70;1.90;;;14.70;99.90;;;;;;5071725;28;20833;-70
2021/09/19 00:32:58;;;;;;;2.50;1.80;;;14.70;99.90;;;;;;5073067;28;20418;-70
2021/09/19 00:35:24;;;;;;;2.10;1.83;;;14.70;99.90;;;;;;5073444;28;20151;-70
2021/09/19 00:37:50;;;;;;;2.33;2.10;;;14.70;99.90;;;;;;5072960;28;20435;-70
2021/09/19 00:40:15;;;;;;;2.57;2.07;;;14.70;99.90;;;;;;5072728;28;20422;-70
2021/09/19 00:42:41;;;;;;;2.03;1.73;;;14.60;99.90;;;;;;5072906;28;20524;-70
2021/09/19 00:45:10;;;;;;;2.50;2.20;;;14.60;99.90;;;;;;5068423;28;20225;-70
2021/09/19 00:47:37;;;;;;;2.07;1.80;;;14.60;99.90;;;;;;5052950;28;20255;-70
2021/09/19 00:50:03;;;;;;;1.90;1.53;;;14.60;99.90;;;;;;5052949;28;20406;-70
2021/09/19 00:52:30;;;;;;;4.87;3.00;;;14.60;99.90;;;;;;5071904;28;20425;-70
2021/09/19 00:54:59;;;;;;;4.53;4.13;;;14.70;99.90;;;;;;5072879;28;20870;-70
2021/09/19 00:57:27;;;;;;;10.13;9.00;;;14.60;99.90;;;;;;5072409;28;20475;-70
2021/09/19 00:59:53;;;;;;;16.77;14.97;;;14.60;99.90;;;;;;5072714;28;20468;-70
2021/09/19 01:02:20;;;;;;;15.43;13.53;;;14.60;99.90;;;;;;5066178;28;20559;-70
2021/09/19 01:04:46;;;;;;;12.27;11.03;;;14.60;99.90;;;;;;5052913;28;20879;-70
2021/09/19 01:07:13;;;;;;;14.20;12.00;;;14.60;99.90;;;;;;5052596;28;20451;-70
2021/09/19 01:09:39;;;;;;;13.63;11.17;;;14.60;99.90;;;;;;5052564;28;20398;-70
2021/09/19 01:12:07;;;;;;;14.63;11.63;;;14.60;99.90;;;;;;5067565;28;20448;-70
2021/09/19 01:14:33;;;;;;;12.90;10.37;;;14.60;99.90;;;;;;5072681;28;20415;-70
2021/09/19 01:17:00;;;;;;;8.83;7.90;;;14.60;99.90;;;;;;5072824;28;20471;-70
2021/09/19 01:19:26;;;;;;;6.83;5.07;;;14.60;99.90;;;;;;5065725;28;20418;-70
2021/09/19 01:21:52;;;;;;;9.77;5.50;;;14.60;99.90;;;;;;5065779;28;20435;-70
2021/09/19 01:24:18;;;;;;;6.70;4.10;;;14.50;99.90;;;;;;5065171;28;20417;-70
2021/09/19 01:26:44;;;;;;;7.60;4.73;;;14.50;99.90;;;;;;5052479;28;20402;-70
2021/09/19 01:29:10;;;;;;;6.87;4.40;;;14.50;99.90;;;;;;5061939;28;20787;-70
2021/09/19 01:31:38;;;;;;;5.30;3.87;;;14.50;99.90;;;;;;5072247;28;20182;-70
2021/09/19 01:34:03;;;;;;;3.20;2.70;;;14.50;99.90;;;;;;5072468;28;20149;-70
2021/09/19 01:36:34;;;;;;;3.70;2.30;;;14.40;99.90;;;;;;5064594;28;20421;-70
2021/09/19 01:38:59;;;;;;;4.63;3.20;;;14.40;99.90;;;;;;5052102;28;20604;-70
2021/09/19 01:41:25;;;;;;;4.53;3.37;;;14.40;99.90;;;;;;5061638;28;20419;-70
2021/09/19 01:43:53;;;;;;;3.30;3.00;;;14.40;99.90;;;;;;5072619;28;20237;-70
2021/09/19 01:46:19;;;;;;;4.23;2.20;;;14.40;99.90;;;;;;5072352;28;20155;-70
2021/09/19 01:48:44;;;;;;;5.50;2.07;;;14.30;99.90;;;;;;5072298;28;20395;-70
2021/09/19 01:51:11;;;;;;;1.67;1.57;;;14.30;99.90;;;;;;5072252;28;20167;-70
2021/09/19 01:53:38;;;;;;;2.13;1.77;;;14.30;99.90;;;;;;5063113;28;20185;-70
2021/09/19 01:56:04;;;;;;;1.90;1.63;;;14.30;99.90;;;;;;5052127;28;20397;-70
2021/09/19 01:58:30;;;;;;;2.47;2.13;;;14.30;99.90;;;;;;5055820;28;20478;-70
2021/09/19 02:00:58;;;;;;;2.37;1.50;;;14.20;99.90;;;;;;5072115;28;20765;-70
2021/09/19 02:03:23;;;;;;;1.80;1.30;;;14.20;99.90;;;;;;5072085;28;20173;-70
2021/09/19 02:05:49;;;;;;;1.70;1.60;;;14.20;99.90;;;;;;5074587;28;20386;-70
2021/09/19 02:08:14;;;;;;;1.60;1.50;;;14.20;99.90;;;;;;5075528;28;20222;-70
2021/09/19 02:10:40;;;;;;;3.30;2.17;;;14.10;99.90;;;;;;5066540;28;20729;-70
2021/09/19 02:13:06;;;;;;;1.97;1.60;;;14.10;99.90;;;;;;5055628;28;20167;-70
2021/09/19 02:15:32;;;;;;;2.47;2.00;;;14.10;99.90;;;;;;5055552;28;20169;-70
2021/09/19 02:17:57;;;;;;;1.67;1.57;;;14.10;99.90;;;;;;5055600;28;20187;-70
2021/09/19 02:20:23;;;;;;;1.47;1.37;;;14.10;99.90;;;;;;5055750;28;20154;-70
2021/09/19 02:22:48;;;;;;;2.27;1.90;;;14.10;99.90;;;;;;5055652;28;20183;-70
2021/09/19 02:25:14;;;;;;;2.80;1.60;;;14.00;99.90;;;;;;5055197;28;20645;-70
2021/09/19 02:27:40;;;;;;;1.67;1.57;;;14.00;99.90;;;;;;5064053;28;20178;-70
2021/09/19 02:30:08;;;;;;;2.80;1.90;;;14.00;99.90;;;;;;5074498;28;20650;-70
2021/09/19 02:32:34;;;;;;;2.80;1.50;;;13.90;99.90;;;;;;5075412;28;20479;-70
2021/09/19 02:35:00;;;;;;;1.93;1.70;;;13.90;99.90;;;;;;5075210;28;20453;-70
2021/09/19 02:37:26;;;;;;;2.00;1.30;;;13.90;99.90;;;;;;5075123;28;20435;-70
2021/09/19 02:39:52;;;;;;;1.83;1.63;;;13.90;99.90;;;;;;5075283;28;20158;-70
2021/09/19 02:42:18;;;;;;;1.90;1.80;;;13.90;99.90;;;;;;5075107;28;20400;-70
2021/09/19 02:44:44;;;;;;;1.80;1.70;;;13.80;99.90;;;;;;5066012;28;20530;-70
2021/09/19 02:47:09;;;;;;;1.87;1.73;;;13.80;99.90;;;;;;5065134;28;20427;-70
2021/09/19 02:49:35;;;;;;;1.30;1.20;;;13.80;99.90;;;;;;5074963;28;20172;-70
2021/09/19 02:52:00;;;;;;;2.90;1.57;;;13.80;99.90;;;;;;5074969;28;20165;-70
2021/09/19 02:54:27;;;;;;;2.67;2.00;;;13.80;99.90;;;;;;5075231;28;20251;-68
2021/09/19 02:56:52;;;;;;;5.40;2.03;;;13.70;99.90;;;;;;5074539;28;20191;-68
2021/09/19 02:59:19;;;;;;;3.07;2.00;;;13.70;99.90;;;;;;5074545;28;20876;-68
2021/09/19 03:01:45;;;;;;;2.30;1.77;;;13.70;99.90;;;;;;5064942;28;20178;-68
2021/09/19 03:04:11;;;;;;;2.10;1.80;;;13.70;99.90;;;;;;5059058;28;20407;-69
2021/09/19 03:06:36;;;;;;;2.83;2.10;;;13.70;99.90;;;;;;5074498;28;20422;-69
2021/09/19 03:09:02;;;;;;;2.50;1.90;;;13.60;99.90;;;;;;5074507;28;20395;-68
2021/09/19 03:11:27;;;;;;;2.10;1.90;;;13.70;99.90;;;;;;5074491;28;20165;-68
2021/09/19 03:13:53;;;;;;;1.83;1.73;;;13.60;99.90;;;;;;5074511;28;20168;-68
2021/09/19 03:16:19;;;;;;;2.10;1.90;;;13.60;99.90;;;;;;5074605;28;20157;-68
2021/09/19 03:18:45;;;;;;;2.17;1.90;;;13.60;99.90;;;;;;5064716;28;20193;-68
2021/09/19 03:21:11;;;;;;;2.77;1.93;;;13.60;99.90;;;;;;5054219;28;20396;-68
2021/09/19 03:23:36;;;;;;;1.70;1.60;;;13.60;99.90;;;;;;5054563;28;20176;-68
2021/09/19 03:26:02;;;;;;;3.03;1.77;;;13.50;99.90;;;;;;5054443;28;20586;-68
2021/09/19 03:28:27;;;;;;;2.63;2.00;;;13.50;99.90;;;;;;5061765;28;20176;-68
2021/09/19 03:30:53;;;;;;;1.93;1.73;;;13.50;99.90;;;;;;5074476;28;20512;-68
2021/09/19 03:33:18;;;;;;;1.93;1.57;;;13.50;99.90;;;;;;5074105;28;20524;-68
2021/09/19 03:35:44;;;;;;;2.00;1.87;;;13.50;99.90;;;;;;5064368;28;20181;-68
2021/09/19 03:38:09;;;;;;;2.63;1.93;;;13.50;99.90;;;;;;5053953;28;20186;-68
2021/09/19 03:40:35;;;;;;;2.40;2.20;;;13.50;99.90;;;;;;5054027;28;20166;-68
2021/09/19 03:43:00;;;;;;;2.63;1.80;;;13.50;99.90;;;;;;5053872;28;20156;-68
2021/09/19 03:45:29;;;;;;;1.70;1.60;;;13.50;99.90;;;;;;5054703;28;20211;-68
2021/09/19 03:47:56;;;;;;;2.30;2.10;;;13.50;99.90;;;;;;5074054;28;20256;-69
2021/09/19 03:50:22;;;;;;;1.70;1.60;;;13.50;99.90;;;;;;5073908;28;20395;-68
2021/09/19 03:52:48;;;;;;;3.67;2.10;;;13.50;99.90;;;;;;5063345;28;20414;-68
2021/09/19 03:55:13;;;;;;;2.03;1.83;;;13.50;99.90;;;;;;5053539;28;20200;-69
2021/09/19 03:57:39;;;;;;;2.17;1.97;;;13.50;99.90;;;;;;5053767;28;20224;-68
2021/09/19 04:00:06;;;;;;;5.93;2.07;;;13.50;99.90;;;;;;5053670;28;20199;-69
2021/09/19 04:02:32;;;;;;;2.33;2.07;;;13.40;99.90;;;;;;5053611;28;20167;-68
2021/09/19 04:04:58;;;;;;;2.17;1.97;;;13.50;99.90;;;;;;5053594;28;20502;-68
2021/09/19 04:07:23;;;;;;;2.10;1.90;;;13.40;99.90;;;;;;5060828;28;20513;-69
2021/09/19 04:09:49;;;;;;;2.50;2.17;;;13.40;99.90;;;;;;5058717;28;20241;-68
2021/09/19 04:12:15;;;;;;;2.43;2.00;;;13.40;99.90;;;;;;5073095;28;20250;-68
2021/09/19 04:14:41;;;;;;;2.70;2.30;;;13.30;99.90;;;;;;5073798;28;20176;-68
2021/09/19 04:17:06;;;;;;;2.40;2.20;;;13.30;99.90;;;;;;5072994;28;20406;-68
2021/09/19 04:19:32;;;;;;;2.50;2.30;;;13.30;99.90;;;;;;5073141;28;20242;-69
2021/09/19 04:21:57;;;;;;;2.30;2.10;;;13.30;99.90;;;;;;5073208;28;20230;-68
2021/09/19 04:24:23;;;;;;;2.40;2.20;;;13.30;99.90;;;;;;5069895;28;20214;-68
2021/09/19 04:26:48;;;;;;;2.57;2.37;;;13.20;99.90;;;;;;5053656;28;20180;-68
2021/09/19 04:29:14;;;;;;;3.20;2.73;;;13.20;99.90;;;;;;5052886;28;20543;-68
2021/09/19 04:31:39;;;;;;;3.00;2.60;;;13.20;99.90;;;;;;5066652;28;20243;-68
2021/09/19 04:34:05;;;;;;;3.20;2.77;;;13.10;99.90;;;;;;5072651;28;20550;-68
2021/09/19 04:36:30;;;;;;;3.10;2.80;;;13.10;99.90;;;;;;5072990;28;20164;-68
2021/09/19 04:38:56;;;;;;;2.83;2.57;;;13.10;99.90;;;;;;5072806;28;20274;-69
2021/09/19 04:41:21;;;;;;;3.57;2.97;;;13.10;99.90;;;;;;5073199;28;20631;-68
2021/09/19 04:43:47;;;;;;;2.67;2.47;;;13.00;99.90;;;;;;5063400;28;20180;-68
2021/09/19 04:46:13;;;;;;;3.43;2.57;;;13.00;99.90;;;;;;5052579;28;20168;-68
2021/09/19 04:48:38;;;;;;;4.57;2.67;;;13.00;99.90;;;;;;5053084;28;20161;-68
2021/09/19 04:51:04;;;;;;;4.30;2.70;;;12.90;99.90;;;;;;5052839;28;20153;-68
2021/09/19 04:53:29;;;;;;;3.73;2.77;;;12.90;99.90;;;;;;5052879;28;20160;-68
2021/09/19 04:55:55;;;;;;;3.90;2.50;;;12.90;99.90;;;;;;5057655;28;20180;-68
2021/09/19 04:58:20;;;;;;;4.17;2.67;;;12.90;99.90;;;;;;5073030;28;20195;-68
2021/09/19 05:00:46;;;;;;;3.30;2.70;;;12.90;99.90;;;;;;5062763;28;20525;-68
2021/09/19 05:03:11;;;;;;;3.47;3.00;;;12.90;99.90;;;;;;5069989;28;20183;-68
2021/09/19 05:05:37;;;;;;;2.93;2.63;;;12.90;99.90;;;;;;5072900;28;20670;-68
2021/09/19 05:08:03;;;;;;;4.20;3.33;;;12.90;99.90;;;;;;5072705;28;20217;-68
2021/09/19 05:10:28;;;;;;;2.97;2.77;;;12.80;99.90;;;;;;5072775;28;20213;-68
2021/09/19 05:12:54;;;;;;;4.03;3.00;;;12.80;99.90;;;;;;5073134;28;20171;-69
2021/09/19 05:15:19;;;;;;;2.97;2.67;;;12.70;99.90;;;;;;5073301;28;20162;-68
2021/09/19 05:17:45;;;;;;;4.43;2.97;;;12.70;99.90;;;;;;5062848;28;20414;-68
2021/09/19 05:20:11;;;;;;;3.17;2.90;;;12.70;99.90;;;;;;5052700;28;20156;-68
2021/09/19 05:22:36;;;;;;;5.20;3.30;;;12.70;99.90;;;;;;5063070;28;20175;-68
2021/09/19 05:25:03;;;;;;;3.50;2.80;;;12.70;99.90;;;;;;5072451;28;20198;-68
2021/09/19 05:27:28;;;;;;;4.70;3.27;;;12.60;99.90;;;;;;5068376;28;20236;-68
2021/09/19 05:29:54;;;;;;;3.77;3.40;;;12.60;99.90;;;;;;5052614;28;20399;-68
2021/09/19 05:32:19;;;;;;;2.83;2.40;;;12.60;99.90;;;;;;5053165;28;20183;-68
2021/09/19 05:34:45;;;;;;;3.83;3.27;;;12.60;99.90;;;;;;5062650;28;20180;-69
2021/09/19 05:37:10;;;;;;;5.27;3.00;;;12.60;99.90;;;;;;5052462;28;20160;-68
2021/09/19 05:39:36;;;;;;;7.30;3.33;;;12.50;99.90;;;;;;5053137;28;20248;-68
2021/09/19 05:42:02;;;;;;;2.80;2.47;;;12.50;99.90;;;;;;5057033;28;20677;-68
2021/09/19 05:44:27;;;;;;;5.80;3.20;;;12.50;99.90;;;;;;5056735;28;20795;-69
2021/09/19 05:46:53;;;;;;;3.67;3.30;;;12.60;99.90;;;;;;5056334;28;20519;-68
2021/09/19 05:49:18;;;;;;;7.60;2.90;;;12.60;99.90;;;;;;5056440;28;20247;-68
2021/09/19 05:51:44;;;;;;;3.60;3.30;;;12.60;99.90;;;;;;5073239;28;20195;-68
2021/09/19 05:54:10;;;;;;;3.37;3.17;;;12.70;99.90;;;;;;5076036;28;20278;-69
2021/09/19 05:56:36;;;;;;;3.30;2.77;;;12.70;99.90;;;;;;5076052;28;20181;-68
2021/09/19 05:59:01;;;;;;;3.03;2.77;;;12.80;99.90;;;;;;5075677;28;20468;-68
2021/09/19 06:01:27;;;;;;;3.27;2.97;;;12.80;99.90;;;;;;5076001;28;20183;-69
2021/09/19 06:03:52;;;;;;;3.23;2.93;;;12.80;99.90;;;;;;5075792;28;20182;-68
2021/09/19 06:06:18;;;;;;;3.60;3.13;;;12.80;99.90;;;;;;5075880;28;20169;-68
2021/09/19 06:08:43;;;;;;;3.37;3.07;;;12.90;99.90;;;;;;5075001;28;20183;-68
2021/09/19 06:11:09;;;;;;;2.93;2.43;;;13.00;99.90;;;;;;5076435;28;20604;-68
2021/09/19 06:13:35;;;;;;;3.70;3.40;;;13.00;99.90;;;;;;5075817;28;20160;-68
2021/09/19 06:16:00;;;;;;;3.00;2.30;;;13.10;99.90;;;;;;5075803;28;20153;-68
2021/09/19 06:18:28;;;;;;;3.67;3.20;;;13.20;99.90;;;;;;5075624;28;20183;-69
2021/09/19 06:20:55;;;;;;;3.03;2.70;;;13.30;99.90;;;;;;5075532;28;20179;-69
2021/09/19 06:23:20;;;;;;;3.40;3.10;;;13.40;99.90;;;;;;5075598;28;20524;-68
2021/09/19 06:25:46;;;;;;;3.40;3.10;;;13.50;99.90;;;;;;5066203;28;20959;-69
2021/09/19 06:28:12;;;;;;;2.80;2.53;;;13.60;99.90;;;;;;5067961;28;20172;-69
2021/09/19 06:30:37;;;;;;;3.80;2.80;;;13.70;99.90;;;;;;5075228;28;20302;-69
2021/09/19 06:33:03;;;;;;;3.10;2.80;;;13.70;99.90;;;;;;5075611;28;20406;-69
2021/09/19 06:35:29;;;;;;;3.23;2.93;;;13.80;99.90;;;;;;5075420;28;20615;-69
2021/09/19 06:37:54;;;;;;;2.63;2.43;;;13.90;99.90;;;;;;5075351;28;20197;-69
2021/09/19 06:40:20;;;;;;;3.00;2.67;;;14.00;99.90;;;;;;5075615;28;20176;-69
2021/09/19 06:42:45;;;;;;;3.07;2.77;;;14.00;99.90;;;;;;5065378;28;20185;-69
2021/09/19 06:45:11;;;;;;;2.83;2.60;;;14.10;99.90;;;;;;5055300;28;20185;-69
2021/09/19 06:47:40;;;;;;;3.13;2.80;;;14.10;99.90;;;;;;5055249;28;20536;-69
2021/09/19 06:50:06;;;;;;;3.00;2.70;;;14.10;99.90;;;;;;5054995;28;20175;-69
2021/09/19 06:52:32;;;;;;;2.87;2.60;;;14.20;99.90;;;;;;5055289;28;20459;-68
2021/09/19 06:54:57;;;;;;;5.13;3.00;;;14.20;99.90;;;;;;5055131;28;20425;-69
2021/09/19 06:57:23;;;;;;;3.33;2.80;;;14.30;99.90;;;;;;5069064;28;20208;-69
2021/09/19 06:59:48;;;;;;;4.40;3.40;;;14.30;99.90;;;;;;5074170;28;20203;-69
2021/09/19 07:02:14;;;;;;;2.53;2.33;;;14.30;99.90;;;;;;5074459;28;20237;-69
2021/09/19 07:04:39;;;;;;;4.20;3.00;;;14.30;99.90;;;;;;5074991;28;20178;-69
2021/09/19 07:07:05;;;;;;;3.33;2.77;;;14.40;99.90;;;;;;5075061;28;20157;-69
2021/09/19 07:09:31;;;;;;;2.60;2.40;;;14.40;99.90;;;;;;5074847;28;20533;-69
2021/09/19 07:11:56;;;;;;;3.97;3.57;;;14.50;99.90;;;;;;5074726;28;20166;-69
2021/09/19 07:14:22;;;;;;;3.40;3.10;;;14.50;99.90;;;;;;5074700;28;20180;-69
2021/09/19 07:16:47;;;;;;;2.33;2.13;;;14.60;99.90;;;;;;5073863;28;20196;-69
2021/09/19 07:19:16;;;;;;;3.20;2.50;;;14.70;99.90;;;;;;5074516;28;20197;-69
2021/09/19 07:21:41;;;;;;;4.07;2.80;;;14.70;99.90;;;;;;5074588;28;20427;-69
2021/09/19 07:24:07;;;;;;;3.10;2.80;;;14.80;99.90;;;;;;5074748;28;20397;-69
2021/09/19 07:26:33;;;;;;;3.37;2.63;;;14.80;99.90;;;;;;5073700;28;20257;-69
2021/09/19 07:28:58;;;;;;;3.00;2.70;;;14.90;99.90;;;;;;5074162;28;20170;-69
2021/09/19 07:31:24;;;;;;;2.67;2.47;;;15.00;99.90;;;;;;5074244;28;20228;-69
2021/09/19 07:33:53;;;;;;;2.67;2.43;;;15.00;99.90;;;;;;5063619;28;20683;-68
2021/09/19 07:36:24;;;;;;;2.97;2.50;;;15.10;99.90;;;;;;5054807;28;20160;-68
2021/09/19 07:38:50;;;;;;;3.10;2.40;;;15.20;99.90;;;;;;5054348;28;20545;-68
2021/09/19 07:41:16;;;;;;;2.93;2.50;;;15.20;99.90;;;;;;5054168;28;20940;-69
2021/09/19 07:43:42;;;;;;;2.90;2.50;;;15.30;99.90;;;;;;5054102;28;20493;-69
2021/09/19 07:46:08;;;;;;;2.57;2.37;;;15.40;99.90;;;;;;5053925;28;20390;-69
2021/09/19 07:48:33;;;;;;;4.13;2.97;;;15.40;99.90;;;;;;5053985;28;20161;-68
2021/09/19 07:50:59;;;;;;;4.13;2.50;;;15.50;99.90;;;;;;5054577;28;20211;-68
2021/09/19 07:53:25;;;;;;;2.97;2.67;;;15.60;99.90;;;;;;5054157;28;20164;-69
2021/09/19 07:55:50;;;;;;;2.77;2.30;;;15.70;99.90;;;;;;5062354;28;20180;-69
2021/09/19 07:58:17;;;;;;;3.00;2.53;;;15.70;99.90;;;;;;5067064;28;20211;-69
2021/09/19 08:00:42;;;;;;;3.20;2.90;;;15.80;99.90;;;;;;5053818;28;20160;-69
2021/09/19 08:03:08;;;;;;;3.37;2.87;;;15.90;99.90;;;;;;5053007;28;20391;-69
2021/09/19 08:05:34;;;;;;;4.17;2.97;;;15.90;99.90;;;;;;5053822;28;20290;-69
2021/09/19 08:07:59;;;;;;;3.27;2.70;;;16.00;99.90;;;;;;5065398;28;20232;-69
2021/09/19 08:10:25;;;;;;;3.13;2.10;;;16.10;99.90;;;;;;5073709;28;20175;-69
2021/09/19 08:12:51;;;;;;;2.93;2.63;;;16.20;99.90;;;;;;5073499;28;20620;-69
2021/09/19 08:15:18;;;;;;;3.33;3.00;;;16.20;99.90;;;;;;5073610;28;20532;-69
2021/09/19 08:17:45;;;;;;;4.13;3.80;;;16.30;99.90;;;;;;5073127;28;20454;-69
2021/09/19 08:20:12;;;;;;;2.63;2.43;;;16.40;99.90;;;;;;5073153;28;20426;-69
2021/09/19 08:22:38;;;;;;;3.90;2.50;;;16.50;99.90;;;;;;5073770;28;20392;-69
2021/09/19 08:25:06;;;;;;;2.40;2.20;;;16.50;99.90;;;;;;5065129;28;20973;-69
2021/09/19 08:27:36;;;;;;;2.80;2.50;;;16.60;99.90;;;;;;5073061;28;20402;-69
2021/09/19 08:30:02;;;;;;;4.50;3.03;;;16.70;99.90;;;;;;5072991;28;20477;-69
2021/09/19 08:32:28;;;;;;;4.20;3.07;;;16.80;99.90;;;;;;5073044;28;20504;-68
2021/09/19 08:34:53;;;;;;;3.13;2.83;;;16.80;99.90;;;;;;5072748;28;20213;-69
2021/09/19 08:37:19;;;;;;;3.47;2.73;;;16.90;99.90;;;;;;5073273;28;20589;-69
2021/09/19 08:39:44;;;;;;;3.50;3.10;;;16.90;99.90;;;;;;5073187;28;20620;-69
2021/09/19 08:42:10;;;;;;;3.30;2.90;;;17.00;99.90;;;;;;5060303;28;20184;-69
2021/09/19 08:44:36;;;;;;;3.53;3.23;;;17.10;99.90;;;;;;5059554;28;20169;-69
2021/09/19 08:47:01;;;;;;;3.70;3.40;;;17.10;99.90;;;;;;5073088;28;20205;-69
2021/09/19 08:49:27;;;;;;;3.40;2.73;;;17.10;99.90;;;;;;5073079;28;20152;-69
2021/09/19 08:51:52;;;;;;;3.00;2.80;;;17.20;99.90;;;;;;5073411;28;20163;-69
2021/09/19 08:54:18;;;;;;;3.20;2.90;;;17.20;99.90;;;;;;5072817;28;20160;-69
2021/09/19 08:56:46;;;;;;;3.20;2.40;;;17.30;99.90;;;;;;5072807;28;20186;-69
2021/09/19 08:59:12;;;;;;;3.80;3.03;;;17.30;99.90;;;;;;5059042;28;20873;-69
2021/09/19 09:04:37;;;;;;;2.87;2.33;;;17.50;99.90;;;;;;5070518;28;20937;-69
2021/09/19 09:07:03;;;;;;;3.27;2.97;;;17.70;99.90;;;;;;5065851;28;20525;-69
2021/09/19 09:09:28;;;;;;;3.07;2.77;;;17.90;99.90;;;;;;5050084;28;20387;-69
2021/09/19 09:12:07;;;;;;;2.50;2.30;;;18.10;99.90;;;;;;5050518;28;20164;-69
2021/09/19 09:14:52;;;;;;;3.00;2.70;;;18.50;99.90;;;;;;5054957;28;20209;-69
2021/09/19 09:17:20;;;;;;;2.57;2.00;;;19.10;99.90;;;;;;5050091;28;20391;-69
2021/09/19 09:19:49;;;;;;;2.63;2.30;;;19.50;99.90;;;;;;5050192;28;20395;-69
2021/09/19 09:22:24;;;;;;;3.67;2.90;;;20.00;99.90;;;;;;5049714;28;20959;-69
2021/09/19 09:27:50;;;;;;;2.80;2.60;;;20.80;99.90;;;;;;5070193;28;20501;-68
2021/09/19 09:30:20;;;;;;;2.37;2.07;;;21.10;99.90;;;;;;5070251;28;20432;-68
2021/09/19 09:35:40;;;;;;;2.40;2.20;;;21.30;99.90;;;;;;5070520;28;20949;-70
2021/09/19 09:38:23;;;;;;;2.80;2.27;;;21.20;99.90;;;;;;5070385;28;20379;-70
2021/09/19 09:40:51;;;;;;;2.07;1.90;;;21.20;99.90;;;;;;5070356;28;20401;-70
2021/09/19 09:43:19;;;;;;;3.47;2.20;;;21.10;99.90;;;;;;5070024;28;20750;-70
2021/09/19 09:45:46;;;;;;;2.40;2.17;;;21.00;99.90;;;;;;5069754;28;20906;-70
2021/09/19 09:51:20;;;;;;;3.70;2.00;;;20.80;99.90;;;;;;5070378;28;21044;-70
2021/09/19 09:53:53;;;;;;;3.20;2.90;;;20.60;99.90;;;;;;5070559;28;20459;-69
2021/09/19 09:56:19;;;;;;;2.27;2.07;;;20.50;99.90;;;;;;5069871;28;20406;-69
2021/09/19 09:58:45;;;;;;;3.17;2.87;;;20.40;99.90;;;;;;5069862;28;21031;-69
2021/09/19 10:01:10;;;;;;;2.87;2.37;;;20.40;99.90;;;;;;5070096;28;20386;-69
2021/09/19 10:03:37;;;;;;;2.53;2.33;;;20.30;99.90;;;;;;5070343;28;20640;-69
2021/09/19 10:06:02;;;;;;;3.23;2.97;;;20.30;99.90;;;;;;5069154;28;20188;-69
2021/09/19 10:08:29;;;;;;;3.20;2.90;;;20.20;99.90;;;;;;5070287;28;20836;-69
2021/09/19 10:10:56;;;;;;;3.07;2.67;;;20.10;99.90;;;;;;5069793;28;20194;-69
2021/09/19 10:13:22;;;;;;;2.33;2.13;;;20.00;99.90;;;;;;5069874;28;20386;-69
2021/09/19 10:15:48;;;;;;;2.90;2.60;;;19.90;99.90;;;;;;5054575;28;20426;-69
2021/09/19 10:18:16;;;;;;;3.10;2.60;;;19.80;99.90;;;;;;5049791;28;20176;-69
2021/09/19 10:20:45;;;;;;;2.70;2.50;;;19.70;99.90;;;;;;5054029;28;20487;-69
2021/09/19 10:23:33;;;;;;;4.47;2.90;;;19.60;99.90;;;;;;5064567;28;20525;-69
2021/09/19 10:26:07;;;;;;;3.23;2.93;;;19.50;99.90;;;;;;5048597;28;20465;-69
2021/09/19 10:28:42;;;;;;;3.37;2.83;;;19.40;99.90;;;;;;5049423;28;20464;-69
2021/09/19 10:36:49;;;;;;;2.70;2.50;;;19.40;99.90;;;;;;5070383;28;20650;-69
2021/09/19 10:39:19;;;;;;;3.53;2.80;;;19.40;99.90;;;;;;5050351;28;20403;-70
2021/09/19 10:53:01;;;;;;;3.10;2.77;;;19.40;99.90;;;;;;5090678;28;20522;-69
2021/09/19 10:55:32;;;;;;;3.50;3.00;;;19.30;99.90;;;;;;5090126;28;20524;-69
2021/09/19 10:58:02;;;;;;;3.83;2.97;;;19.30;99.90;;;;;;5078512;28;20405;-69
2021/09/19 11:00:29;;;;;;;3.80;2.30;;;19.20;99.90;;;;;;5070356;28;20437;-69
2021/09/19 11:05:47;;;;;;;4.20;2.60;;;19.20;99.90;;;;;;5070037;28;20528;-70
2021/09/19 11:08:22;;;;;;;3.00;2.70;;;19.10;99.90;;;;;;5070337;28;20386;-70
2021/09/19 11:24:01;;;;;;;3.70;3.40;;;19.30;99.90;;;;;;5070133;28;20577;-69
2021/09/19 11:26:30;;;;;;;4.50;3.40;;;19.40;99.90;;;;;;5050204;28;20410;-69
2021/09/19 11:28:58;;;;;;;4.00;3.30;;;19.40;99.90;;;;;;5050269;28;20390;-69
2021/09/19 11:31:24;;;;;;;3.43;3.10;;;19.50;99.90;;;;;;5051403;28;20403;-70
2021/09/19 11:33:50;;;;;;;3.40;3.10;;;19.60;99.90;;;;;;5050272;28;20441;-69
2021/09/19 11:36:19;;;;;;;2.80;2.57;;;19.50;99.90;;;;;;5069297;28;20174;-69
2021/09/19 11:38:48;;;;;;;4.20;3.30;;;19.50;99.90;;;;;;5070038;28;20295;-70
2021/09/19 11:41:14;;;;;;;2.50;2.30;;;19.50;99.90;;;;;;5070149;28;20390;-69
2021/09/19 11:43:42;;;;;;;3.13;2.83;;;19.40;99.90;;;;;;5069951;28;20473;-69
2021/09/19 11:46:11;;;;;;;3.57;3.27;;;19.50;99.90;;;;;;5069957;28;20418;-69
2021/09/19 11:48:39;;;;;;;3.60;3.30;;;19.60;99.90;;;;;;5066519;28;20421;-69
2021/09/19 11:51:05;;;;;;;2.70;2.50;;;19.70;99.90;;;;;;5069913;28;20391;-70
2021/09/19 11:53:31;;;;;;;3.33;2.87;;;19.80;99.90;;;;;;5069745;28;20754;-70
2021/09/19 11:55:57;;;;;;;4.70;4.10;;;19.80;99.90;;;;;;5069774;28;20410;-70
2021/09/19 11:58:23;;;;;;;3.00;2.70;;;19.80;99.90;;;;;;5069830;28;20241;-69
2021/09/19 12:00:53;;;;;;;3.50;3.20;;;19.80;99.90;;;;;;5069866;28;20425;-69
2021/09/19 12:03:19;;;;;;;3.30;3.00;;;19.80;99.90;;;;;;5069509;28;20469;-69
2021/09/19 12:05:54;;;;;;;3.67;3.30;;;19.70;99.90;;;;;;5064781;28;20424;-70
2021/09/19 12:08:21;;;;;;;3.50;3.20;;;19.70;99.90;;;;;;5069650;28;20504;-70
2021/09/19 12:10:48;;;;;;;3.40;3.07;;;19.70;99.90;;;;;;5069344;28;20390;-69
2021/09/19 12:18:46;;;;;;;4.20;3.50;;;19.60;99.90;;;;;;5069987;28;20528;-69
2021/09/19 12:21:15;;;;;;;6.93;4.73;;;19.50;99.90;;;;;;5070313;28;20387;-70
2021/09/19 12:23:47;;;;;;;5.40;4.43;;;19.50;99.90;;;;;;5052911;28;20814;-69
2021/09/19 12:26:15;;;;;;;4.07;3.60;;;19.50;99.90;;;;;;5067753;28;20401;-69
2021/09/19 12:28:43;;;;;;;6.00;4.03;;;19.50;99.90;;;;;;5070494;28;20394;-69
2021/09/19 12:31:11;;;;;;;5.63;3.83;;;19.50;99.90;;;;;;5069575;28;20421;-69
2021/09/19 12:33:54;;;;;;;3.53;3.20;;;19.50;99.90;;;;;;5070051;28;20418;-69
2021/09/19 12:36:21;;;;;;;5.40;4.10;;;19.40;99.90;;;;;;5069850;28;20396;-69
2021/09/19 12:38:47;;;;;;;4.30;3.83;;;19.40;99.90;;;;;;5068314;28;20616;-69
2021/09/19 12:41:14;;;;;;;4.30;3.63;;;19.20;99.90;;;;;;5059282;28;20941;-69
2021/09/19 12:43:42;;;;;;;4.50;3.60;;;19.10;99.90;;;;;;5070163;28;20160;-69
2021/09/19 12:46:12;;;;;;;4.90;4.40;;;19.00;99.90;;;;;;5070106;28;20402;-69
2021/09/19 12:48:37;;;;;;;6.33;4.60;;;18.90;99.90;;;;;;5069585;28;20574;-69
2021/09/19 12:51:04;;;;;;;4.53;4.13;;;18.80;99.90;;;;;;5069421;28;20500;-70
2021/09/19 12:53:32;;;;;;;4.10;3.63;;;18.70;99.90;;;;;;5069688;28;20156;-69
2021/09/19 12:55:58;;;;;;;5.00;4.07;;;18.70;99.90;;;;;;5066121;28;20526;-69
2021/09/19 12:58:24;;;;;;;4.67;3.47;;;18.70;99.90;;;;;;5049718;28;20628;-70
2021/09/19 13:00:50;;;;;;;3.47;3.17;;;18.70;99.90;;;;;;5049612;28;20170;-70
2021/09/19 13:03:18;;;;;;;4.33;3.00;;;18.70;99.90;;;;;;5051698;28;20457;-69
2021/09/19 13:05:44;;;;;;;4.10;3.53;;;18.70;99.90;;;;;;5052565;28;20449;-69
2021/09/19 13:08:11;;;;;;;5.60;4.30;;;18.70;99.90;;;;;;5049579;28;20454;-69
2021/09/19 13:10:36;;;;;;;4.03;3.60;;;18.70;99.90;;;;;;5049235;28;20464;-69
2021/09/19 13:13:02;;;;;;;3.43;3.03;;;18.80;99.90;;;;;;5050554;28;20900;-69
2021/09/19 13:15:28;;;;;;;5.77;4.03;;;18.80;99.90;;;;;;5049202;28;20227;-69
2021/09/19 13:17:54;;;;;;;3.97;3.57;;;18.90;99.90;;;;;;5049165;28;20204;-70
2021/09/19 13:20:21;;;;;;;5.43;4.87;;;18.90;99.90;;;;;;5049140;28;20411;-69
2021/09/19 13:22:46;;;;;;;4.60;3.90;;;19.00;99.90;;;;;;5049125;28;20153;-69
2021/09/19 13:25:13;;;;;;;5.00;3.73;;;19.10;99.90;;;;;;5049043;28;20441;-69
2021/09/19 13:27:38;;;;;;;7.63;4.33;;;19.10;99.90;;;;;;5049523;28;20160;-70
2021/09/19 13:30:05;;;;;;;5.30;4.60;;;19.20;99.90;;;;;;5037256;28;20473;-69
2021/09/19 13:32:30;;;;;;;6.17;4.43;;;19.20;99.90;;;;;;5055777;28;20161;-69